createdAt,value
2023-03-17T00:21:03.130Z,1.06
2023-03-17T00:23:29.992Z,0.82
2023-03-17T00:25:57.399Z,0.78
2023-03-17T01:15:23.103Z,1.01
2023-03-17T01:18:33.068Z,0.59
2023-03-17T01:21:43.409Z,0.55
2023-03-17T01:24:10.131Z,0.49
2023-03-17T02:37:12.935Z,0.56
2023-03-17T02:39:39.513Z,0.69
2023-03-17T02:42:06.809Z,0.69
2023-03-17T03:07:49.159Z,0.57
2023-03-17T03:21:19.908Z,0.59
2023-03-17T03:23:46.474Z,0.39
2023-03-17T03:26:13.136Z,0.45
2023-03-17T03:28:39.762Z,0.33
2023-03-17T03:31:14.338Z,0.32
2023-03-17T03:36:16.278Z,0.24
2023-03-17T03:38:42.890Z,0.37
2023-03-17T03:41:09.802Z,0.32
2023-03-17T03:43:36.411Z,0.43
2023-03-17T03:46:04.529Z,0.59
2023-03-17T03:48:31.335Z,0.60
2023-03-17T03:50:59.425Z,0.82
2023-03-17T03:53:27.287Z,0.43
2023-03-17T03:55:54.728Z,0.09
2023-03-17T03:58:21.614Z,-0.23
2023-03-17T04:00:48.400Z,0.01
2023-03-17T04:03:15.118Z,-0.17
2023-03-17T04:05:41.995Z,-0.03
2023-03-17T04:08:09.128Z,0.29
2023-03-17T04:10:35.659Z,-0.12
2023-03-17T04:13:02.231Z,-0.19
2023-03-17T04:15:29.262Z,0.24
2023-03-17T04:17:56.086Z,0.22
2023-03-17T04:20:22.753Z,-0.03
2023-03-17T04:22:49.594Z,0.38
2023-03-17T04:25:16.213Z,0.51
2023-03-17T04:27:42.959Z,0.31
2023-03-17T04:30:16.682Z,0.31
2023-03-17T04:32:44.787Z,0.58
2023-03-17T04:35:17.409Z,0.71
2023-03-17T04:37:44.163Z,0.42
2023-03-17T04:40:12.969Z,0.47
2023-03-17T04:42:40.578Z,0.63
2023-03-17T04:45:09.593Z,0.59
2023-03-17T04:47:36.659Z,0.35
2023-03-17T04:50:04.318Z,0.43
2023-03-17T04:52:31.142Z,0.37
2023-03-17T04:54:57.829Z,0.43
2023-03-17T04:57:24.617Z,0.48
2023-03-17T04:59:51.698Z,0.49
2023-03-17T05:02:21.102Z,0.49
2023-03-17T05:04:47.927Z,0.67
2023-03-17T05:07:14.674Z,0.63
2023-03-17T05:09:42.010Z,0.96
2023-03-17T05:12:09.924Z,0.83
2023-03-17T05:14:37.349Z,0.65
2023-03-17T05:17:03.975Z,0.70
2023-03-17T05:19:30.726Z,0.47
2023-03-17T05:21:57.375Z,0.66
2023-03-17T05:24:23.996Z,0.68
2023-03-17T05:26:50.718Z,0.77
2023-03-17T05:29:17.336Z,0.79
2023-03-17T05:31:44.342Z,0.88
2023-03-17T05:34:10.877Z,1.09
2023-03-17T05:36:37.584Z,1.03
2023-03-17T05:39:07.503Z,1.01
2023-03-17T05:41:34.086Z,1.21
2023-03-17T05:46:48.894Z,1.30
2023-03-17T05:51:50.812Z,1.68
2023-03-17T06:56:20.057Z,5.56
2023-03-17T06:58:54.148Z,5.60
2023-03-17T07:01:21.166Z,5.60
2023-03-17T07:03:48.157Z,5.69
2023-03-17T07:06:14.772Z,5.62
2023-03-17T10:18:39.029Z,10.77
2023-03-17T10:21:07.947Z,11.37
2023-03-17T10:23:36.128Z,10.94
2023-03-17T12:46:45.420Z,13.17
2023-03-17T13:41:57.682Z,11.46
2023-03-17T13:44:39.295Z,11.45
2023-03-17T17:00:33.476Z,10.68
2023-03-17T17:03:00.608Z,10.62
2023-03-17T17:05:31.319Z,10.39
2023-03-17T17:07:58.790Z,10.30
2023-03-17T17:10:28.607Z,10.15
2023-03-17T20:22:56.246Z,5.45
2023-03-17T20:25:22.872Z,5.88
2023-03-17T20:27:49.465Z,5.66
2023-03-17T23:39:03.699Z,3.71
2023-03-17T23:41:30.368Z,3.60
2023-03-17T23:43:56.924Z,3.93
2023-03-17T23:46:23.852Z,4.11
